Time;durP1;ratioP1;P1;durP2;ratioP2;P2;SDS_P1;SDS_P2;PMS_P1;PMS_P2;Temp;Humidity;BMP_temperature;BMP_pressure;BME280_temperature;BME280_humidity;BME280_pressure;Samples;Min_cycle;Max_cycle;Signal;HPM_P1;HPM_P2
2023/03/22 00:04:05;;;;;;;270.30;114.57;;;;;;;;;;10463855;28;20044;-82
2023/03/22 00:09:06;;;;;;;208.43;94.43;;;;;;;;;;10431239;28;20045;-82
2023/03/22 00:14:07;;;;;;;248.27;100.03;;;;;;;;;;10468584;23;20056;-82
2023/03/22 00:19:08;;;;;;;253.77;104.30;;;;;;;;;;10458199;28;20160;-83
2023/03/22 00:24:09;;;;;;;307.93;113.73;;;;;;;;;;10449943;28;20047;-83
2023/03/22 00:29:10;;;;;;;266.97;109.60;;;;;;;;;;10443333;28;20037;-82
2023/03/22 00:34:10;;;;;;;350.93;126.10;;;;;;;;;;10463815;28;20484;-82
2023/03/22 00:39:11;;;;;;;370.50;124.33;;;;;;;;;;10457349;28;20025;-82
2023/03/22 00:44:12;;;;;;;629.93;175.63;;;;;;;;;;10448081;28;20190;-83
2023/03/22 00:49:13;;;;;;;462.77;145.07;;;;;;;;;;10456645;28;20040;-82
2023/03/22 00:54:16;;;;;;;514.13;151.73;;;;;;;;;;10454476;28;20036;-82
2023/03/22 00:59:17;;;;;;;689.57;182.70;;;;;;;;;;10457212;28;20066;-83
2023/03/22 01:04:24;;;;;;;557.63;155.77;;;;;;;;;;10449804;28;20120;-83
2023/03/22 01:09:27;;;;;;;543.40;163.20;;;;;;;;;;10448520;28;20051;-83
2023/03/22 01:14:30;;;;;;;439.93;140.80;;;;;;;;;;10420464;28;20049;-86
2023/03/22 01:19:31;;;;;;;745.30;195.60;;;;;;;;;;10406900;28;20103;-84
2023/03/22 01:24:32;;;;;;;306.97;114.40;;;;;;;;;;10411497;28;20095;-84
2023/03/22 01:29:34;;;;;;;270.57;107.63;;;;;;;;;;10418596;28;20118;-84
2023/03/22 01:34:35;;;;;;;413.23;126.00;;;;;;;;;;10415007;28;20040;-84
2023/03/22 01:39:36;;;;;;;948.03;210.77;;;;;;;;;;10408117;28;20091;-84
2023/03/22 01:44:38;;;;;;;547.20;136.03;;;;;;;;;;10407125;28;20040;-84
2023/03/22 01:49:40;;;;;;;221.30;92.60;;;;;;;;;;10416463;28;20556;-84
2023/03/22 01:54:41;;;;;;;1028.10;203.37;;;;;;;;;;10434587;28;20117;-84
2023/03/22 01:59:43;;;;;;;591.07;129.83;;;;;;;;;;10424674;28;20547;-84
2023/03/22 02:04:45;;;;;;;408.63;102.80;;;;;;;;;;10438408;28;20087;-84
2023/03/22 02:09:46;;;;;;;597.20;122.13;;;;;;;;;;10402428;28;20037;-84
2023/03/22 02:14:54;;;;;;;807.70;159.60;;;;;;;;;;10420285;28;20519;-84
2023/03/22 02:20:14;;;;;;;1062.83;201.80;;;;;;;;;;10419725;28;20041;-84
2023/03/22 02:25:35;;;;;;;1291.53;241.13;;;;;;;;;;10398639;28;20111;-84
2023/03/22 02:30:51;;;;;;;278.50;93.97;;;;;;;;;;10427271;28;20120;-84
2023/03/22 02:35:55;;;;;;;361.52;106.88;;;;;;;;;;10396260;28;20040;-84
2023/03/22 02:41:05;;;;;;;1016.37;194.67;;;;;;;;;;10410004;28;20032;-84
2023/03/22 02:46:29;;;;;;;719.27;176.77;;;;;;;;;;10435081;28;20030;-84
2023/03/22 02:51:42;;;;;;;907.60;194.90;;;;;;;;;;10388122;28;20080;-84
2023/03/22 02:56:43;;;;;;;678.00;144.33;;;;;;;;;;10456503;22;20705;-85
2023/03/22 03:01:58;;;;;;;1178.80;214.87;;;;;;;;;;10452524;28;20032;-84
2023/03/22 03:07:02;;;;;;;953.77;192.13;;;;;;;;;;10458769;28;20095;-84
2023/03/22 03:12:08;;;;;;;671.83;155.37;;;;;;;;;;10472742;28;20036;-84
2023/03/22 03:17:09;;;;;;;;;;;;;;;;;;10460253;28;20545;-84
2023/03/22 03:22:16;;;;;;;988.43;186.80;;;;;;;;;;10469138;28;20011;-84
2023/03/22 03:27:21;;;;;;;723.33;141.73;;;;;;;;;;10435156;28;20033;-84
2023/03/22 03:32:27;;;;;;;365.13;93.43;;;;;;;;;;10445905;28;20087;-84
2023/03/22 03:37:31;;;;;;;430.60;93.82;;;;;;;;;;10458588;28;20090;-84
2023/03/22 03:42:33;;;;;;;452.97;108.53;;;;;;;;;;10439774;28;20090;-84
2023/03/22 03:47:34;;;;;;;432.50;120.83;;;;;;;;;;10460867;28;20044;-84
2023/03/22 03:52:35;;;;;;;827.73;155.67;;;;;;;;;;10439730;28;20048;-83
2023/03/22 03:57:36;;;;;;;821.37;176.47;;;;;;;;;;10448704;28;20061;-86
2023/03/22 04:02:37;;;;;;;464.90;124.67;;;;;;;;;;10437239;28;20107;-84
2023/03/22 04:07:39;;;;;;;302.27;87.63;;;;;;;;;;10455701;28;20041;-83
2023/03/22 04:12:40;;;;;;;283.87;87.40;;;;;;;;;;10467722;28;20045;-84
2023/03/22 04:17:41;;;;;;;272.07;84.83;;;;;;;;;;10457943;28;20024;-85
2023/03/22 04:22:42;;;;;;;259.70;83.57;;;;;;;;;;10461345;28;20139;-84
2023/03/22 04:27:44;;;;;;;318.20;95.30;;;;;;;;;;10444601;28;20056;-84
2023/03/22 04:32:46;;;;;;;300.27;92.80;;;;;;;;;;10457672;28;20082;-85
2023/03/22 04:37:47;;;;;;;257.20;81.17;;;;;;;;;;10436823;28;20060;-83
2023/03/22 04:42:48;;;;;;;302.50;91.40;;;;;;;;;;10458157;28;20047;-83
2023/03/22 04:47:49;;;;;;;283.83;84.33;;;;;;;;;;10464953;28;20045;-82
2023/03/22 04:52:50;;;;;;;321.17;90.93;;;;;;;;;;10437508;28;20496;-81
2023/03/22 04:57:53;;;;;;;286.50;83.50;;;;;;;;;;10440707;28;20052;-86
2023/03/22 05:02:54;;;;;;;187.80;63.07;;;;;;;;;;10464545;28;20032;-83
2023/03/22 05:07:55;;;;;;;313.60;111.53;;;;;;;;;;10429150;28;20132;-88
2023/03/22 05:12:56;;;;;;;252.77;83.30;;;;;;;;;;10451925;28;20039;-84
2023/03/22 05:17:57;;;;;;;266.60;85.70;;;;;;;;;;10449488;23;20061;-86
2023/03/22 05:23:01;;;;;;;229.07;75.77;;;;;;;;;;10437767;28;20034;-88
2023/03/22 05:28:02;;;;;;;247.97;83.23;;;;;;;;;;10451969;28;20044;-87
2023/03/22 05:33:04;;;;;;;280.30;96.13;;;;;;;;;;10465037;28;20029;-88
2023/03/22 05:38:05;;;;;;;276.63;97.80;;;;;;;;;;10481275;23;20052;-87
2023/03/22 05:43:06;;;;;;;257.43;91.53;;;;;;;;;;10482316;28;20056;-87
2023/03/22 05:48:07;;;;;;;235.13;84.17;;;;;;;;;;10482701;28;20131;-89
2023/03/22 05:53:10;;;;;;;244.97;82.83;;;;;;;;;;10468594;28;20403;-86
2023/03/22 05:58:11;;;;;;;268.93;90.73;;;;;;;;;;10483864;28;20016;-87
2023/03/22 06:03:12;;;;;;;247.47;87.97;;;;;;;;;;10484518;28;20040;-88
2023/03/22 06:08:13;;;;;;;229.13;84.37;;;;;;;;;;10488945;28;20186;-87
2023/03/22 06:13:14;;;;;;;272.13;93.60;;;;;;;;;;10512768;28;20032;-86
2023/03/22 06:18:15;;;;;;;241.43;87.73;;;;;;;;;;10494150;28;20434;-86
2023/03/22 06:23:16;;;;;;;237.07;94.90;;;;;;;;;;10494783;28;20024;-88
2023/03/22 06:28:17;;;;;;;231.57;88.77;;;;;;;;;;10485459;28;20558;-89
2023/03/22 06:33:18;;;;;;;237.73;93.77;;;;;;;;;;10485217;28;20094;-86
2023/03/22 06:38:19;;;;;;;254.50;96.17;;;;;;;;;;10484785;28;20079;-87
2023/03/22 06:43:20;;;;;;;221.43;84.97;;;;;;;;;;10498384;28;20119;-87
2023/03/22 06:48:21;;;;;;;235.10;86.63;;;;;;;;;;10484568;28;20387;-89
2023/03/22 06:53:22;;;;;;;214.77;80.93;;;;;;;;;;10470439;28;20493;-87
2023/03/22 06:58:23;;;;;;;222.40;83.63;;;;;;;;;;10497734;28;20020;-88
2023/03/22 07:03:24;;;;;;;227.03;81.57;;;;;;;;;;10484286;28;20581;-87
2023/03/22 07:08:25;;;;;;;216.37;83.30;;;;;;;;;;10489804;28;20403;-87
2023/03/22 07:13:26;;;;;;;211.67;83.77;;;;;;;;;;10490143;28;20021;-87
2023/03/22 07:18:27;;;;;;;206.83;81.03;;;;;;;;;;10505513;28;20051;-87
2023/03/22 07:23:28;;;;;;;197.73;82.53;;;;;;;;;;10487624;28;20025;-87
2023/03/22 07:28:29;;;;;;;184.60;81.17;;;;;;;;;;10494983;28;20426;-87
2023/03/22 07:33:30;;;;;;;191.53;84.33;;;;;;;;;;10497911;28;20075;-86
2023/03/22 07:38:31;;;;;;;180.57;82.23;;;;;;;;;;10502078;28;20690;-88
2023/03/22 07:43:32;;;;;;;170.37;77.50;;;;;;;;;;10513049;28;20020;-87
2023/03/22 07:48:35;;;;;;;177.00;80.00;;;;;;;;;;10472332;28;20059;-87
2023/03/22 07:53:36;;;;;;;173.80;78.27;;;;;;;;;;10500878;28;20089;-87
2023/03/22 07:58:37;;;;;;;177.13;84.30;;;;;;;;;;10508758;28;20043;-87
2023/03/22 08:03:38;;;;;;;147.00;69.30;;;;;;;;;;10499768;28;20033;-88
2023/03/22 08:08:39;;;;;;;143.20;65.72;;;;;;;;;;10494018;28;20044;-89
2023/03/22 08:13:40;;;;;;;143.77;65.63;;;;;;;;;;10495741;28;20466;-88
2023/03/22 08:18:41;;;;;;;131.35;61.75;;;;;;;;;;10495962;28;20086;-86
2023/03/22 08:23:42;;;;;;;130.50;62.33;;;;;;;;;;10501655;28;20025;-86
2023/03/22 08:28:43;;;;;;;109.65;54.78;;;;;;;;;;10480060;28;20575;-87
2023/03/22 08:33:44;;;;;;;106.50;52.28;;;;;;;;;;10457359;28;20050;-87
2023/03/22 08:38:45;;;;;;;97.57;48.47;;;;;;;;;;10498923;28;20049;-87
2023/03/22 08:43:46;;;;;;;104.32;49.72;;;;;;;;;;10480299;28;20515;-87
2023/03/22 08:48:49;;;;;;;98.35;49.35;;;;;;;;;;10484956;28;20047;-87
2023/03/22 08:53:50;;;;;;;100.72;48.17;;;;;;;;;;10493852;28;20495;-87
2023/03/22 08:58:51;;;;;;;91.00;47.28;;;;;;;;;;10479997;28;20028;-87
2023/03/22 09:03:52;;;;;;;88.63;46.55;;;;;;;;;;10489524;28;20028;-88
2023/03/22 09:08:54;;;;;;;93.18;46.60;;;;;;;;;;10483498;28;20047;-87
2023/03/22 09:13:55;;;;;;;95.18;50.28;;;;;;;;;;10479546;28;20037;-86
2023/03/22 09:18:56;;;;;;;104.55;52.33;;;;;;;;;;10479066;28;20043;-88
2023/03/22 09:23:57;;;;;;;94.35;49.88;;;;;;;;;;10498426;28;20035;-87
2023/03/22 09:28:58;;;;;;;79.63;45.10;;;;;;;;;;10513211;28;20074;-87
2023/03/22 09:33:59;;;;;;;79.70;44.95;;;;;;;;;;10493465;28;20401;-87
2023/03/22 09:39:01;;;;;;;80.03;45.85;;;;;;;;;;10493838;28;20059;-87
2023/03/22 09:44:04;;;;;;;65.55;39.33;;;;;;;;;;10487214;28;20032;-87
2023/03/22 09:49:09;;;;;;;56.40;35.72;;;;;;;;;;10498613;28;20044;-88
2023/03/22 09:54:12;;;;;;;69.50;38.67;;;;;;;;;;10476136;28;20052;-86
2023/03/22 09:59:19;;;;;;;71.57;39.70;;;;;;;;;;10504195;28;20430;-86
2023/03/22 10:04:20;;;;;;;76.45;44.78;;;;;;;;;;10476993;28;20103;-88
2023/03/22 10:09:41;;;;;;;57.60;37.22;;;;;;;;;;10490116;28;20119;-85
2023/03/22 10:14:49;;;;;;;52.55;33.65;;;;;;;;;;10472831;28;20357;-87
2023/03/22 10:19:50;;;;;;;54.97;33.10;;;;;;;;;;10490952;28;20059;-87
2023/03/22 10:24:53;;;;;;;52.40;30.77;;;;;;;;;;10472628;28;20043;-87
2023/03/22 10:30:12;;;;;;;47.95;28.00;;;;;;;;;;10490548;28;20518;-87
2023/03/22 10:35:14;;;;;;;41.60;26.90;;;;;;;;;;10472226;28;20064;-87
2023/03/22 10:40:20;;;;;;;59.78;31.65;;;;;;;;;;10471683;28;20145;-85
2023/03/22 10:45:21;;;;;;;;;;;;;;;;;;10490875;28;20025;-87
2023/03/22 10:50:27;;;;;;;40.58;26.52;;;;;;;;;;10488709;28;19909;-85
2023/03/22 10:55:28;;;;;;;45.67;28.02;;;;;;;;;;10489963;28;20025;-85
2023/03/22 11:00:29;;;;;;;54.70;32.67;;;;;;;;;;10471466;28;20048;-86
2023/03/22 11:05:30;;;;;;;44.17;27.98;;;;;;;;;;10470870;28;20044;-87
2023/03/22 11:10:32;;;;;;;50.85;32.00;;;;;;;;;;10488687;28;20033;-86
2023/03/22 11:15:35;;;;;;;54.17;33.65;;;;;;;;;;10489686;28;20504;-86
2023/03/22 11:20:39;;;;;;;43.58;26.92;;;;;;;;;;10488897;28;20070;-85
2023/03/22 11:25:46;;;;;;;36.58;25.38;;;;;;;;;;10497020;28;20439;-88
2023/03/22 11:30:59;;;;;;;46.83;29.48;;;;;;;;;;10506240;28;20039;-86
2023/03/22 11:36:02;;;;;;;44.85;24.40;;;;;;;;;;10517910;28;20040;-85
2023/03/22 11:41:06;;;;;;;40.58;25.52;;;;;;;;;;10482183;28;20428;-88
2023/03/22 11:46:07;;;;;;;32.67;20.33;;;;;;;;;;10468234;28;20459;-85
2023/03/22 11:51:10;;;;;;;35.22;19.70;;;;;;;;;;10502867;28;20085;-87
2023/03/22 11:56:19;;;;;;;40.63;25.35;;;;;;;;;;10498819;28;20028;-86
2023/03/22 12:01:38;;;;;;;24.63;16.08;;;;;;;;;;10504004;28;20122;-87
2023/03/22 12:06:40;;;;;;;23.00;14.32;;;;;;;;;;10500615;28;20480;-87
2023/03/22 12:11:44;;;;;;;28.25;15.93;;;;;;;;;;10508912;28;20035;-84
2023/03/22 12:16:48;;;;;;;23.95;14.52;;;;;;;;;;10483089;28;20182;-85
2023/03/22 12:21:51;;;;;;;20.08;12.10;;;;;;;;;;10512397;28;20039;-87
2023/03/22 12:26:54;;;;;;;24.23;14.02;;;;;;;;;;10513847;28;20028;-86
2023/03/22 12:32:03;;;;;;;17.08;9.27;;;;;;;;;;10512823;28;20411;-85
2023/03/22 12:37:06;;;;;;;24.23;13.95;;;;;;;;;;10511622;28;20388;-85
2023/03/22 12:42:17;;;;;;;19.40;11.35;;;;;;;;;;10493816;28;20059;-86
2023/03/22 12:47:22;;;;;;;36.63;16.85;;;;;;;;;;10488962;28;20459;-87
2023/03/22 12:52:30;;;;;;;17.20;9.77;;;;;;;;;;10501961;28;20431;-87
2023/03/22 12:57:31;;;;;;;16.05;9.10;;;;;;;;;;10511350;28;20039;-86
2023/03/22 13:02:33;;;;;;;36.67;16.45;;;;;;;;;;10493604;28;20029;-86
2023/03/22 13:07:39;;;;;;;30.42;14.77;;;;;;;;;;10484224;28;20121;-85
2023/03/22 13:12:41;;;;;;;17.20;9.07;;;;;;;;;;10472478;28;20020;-85
2023/03/22 13:17:44;;;;;;;19.15;11.23;;;;;;;;;;10520827;28;20360;-86
2023/03/22 13:22:45;;;;;;;21.00;10.60;;;;;;;;;;10506421;28;20028;-85
2023/03/22 13:27:51;;;;;;;30.92;15.20;;;;;;;;;;10516066;28;20028;-84
2023/03/22 13:33:02;;;;;;;7.72;5.28;;;;;;;;;;10520794;28;20039;-86
2023/03/22 13:38:08;;;;;;;12.93;7.63;;;;;;;;;;10512693;28;20392;-85
2023/03/22 13:43:12;;;;;;;23.50;12.45;;;;;;;;;;10485717;28;20400;-84
2023/03/22 13:48:28;;;;;;;9.27;6.95;;;;;;;;;;10497947;28;20028;-83
2023/03/22 13:53:30;;;;;;;105.05;48.55;;;;;;;;;;10519477;28;20479;-83
2023/03/22 13:58:37;;;;;;;15.75;8.48;;;;;;;;;;10489529;28;20097;-86
2023/03/22 14:03:41;;;;;;;14.80;8.55;;;;;;;;;;10516873;28;20033;-86
2023/03/22 14:08:43;;;;;;;12.35;7.80;;;;;;;;;;10478022;28;20031;-83
2023/03/22 14:13:50;;;;;;;11.73;7.07;;;;;;;;;;10480895;28;20047;-85
2023/03/22 14:18:51;;;;;;;13.77;7.38;;;;;;;;;;10498983;28;20044;-83
2023/03/22 14:23:54;;;;;;;8.98;6.13;;;;;;;;;;10488803;28;20170;-84
2023/03/22 14:29:04;;;;;;;16.05;8.13;;;;;;;;;;10486360;28;20507;-83
2023/03/22 14:34:07;;;;;;;14.32;8.32;;;;;;;;;;10475612;28;20454;-82
2023/03/22 14:39:14;;;;;;;15.68;8.50;;;;;;;;;;10471887;28;20496;-85
2023/03/22 14:44:21;;;;;;;12.20;7.55;;;;;;;;;;10458223;28;20036;-87
2023/03/22 14:49:22;;;;;;;12.63;7.35;;;;;;;;;;10469309;28;20040;-83
2023/03/22 14:54:26;;;;;;;25.85;16.60;;;;;;;;;;10453862;28;20037;-84
2023/03/22 14:59:28;;;;;;;9.57;5.67;;;;;;;;;;10446609;28;20033;-84
2023/03/22 15:04:30;;;;;;;15.57;8.25;;;;;;;;;;10454797;28;20275;-85
2023/03/22 15:09:31;;;;;;;8.15;4.45;;;;;;;;;;10446546;28;20036;-84
2023/03/22 15:14:33;;;;;;;25.67;11.70;;;;;;;;;;10467350;28;20107;-83
2023/03/22 15:19:37;;;;;;;23.40;9.82;;;;;;;;;;10448113;28;20060;-84
2023/03/22 15:24:39;;;;;;;25.13;14.00;;;;;;;;;;10430770;28;20025;-84
2023/03/22 15:29:41;;;;;;;49.55;25.20;;;;;;;;;;10442247;28;20117;-86
2023/03/22 15:34:42;;;;;;;39.15;20.27;;;;;;;;;;10445486;28;20029;-84
2023/03/22 15:39:44;;;;;;;35.05;17.45;;;;;;;;;;10451854;28;20534;-83
2023/03/22 15:44:52;;;;;;;26.45;14.70;;;;;;;;;;10458240;28;20435;-84
2023/03/22 15:49:54;;;;;;;27.27;16.15;;;;;;;;;;10461343;28;20040;-83
2023/03/22 15:55:03;;;;;;;18.90;10.52;;;;;;;;;;10448553;28;20384;-84
2023/03/22 16:00:22;;;;;;;13.48;7.50;;;;;;;;;;10442529;28;20044;-82
2023/03/22 16:05:25;;;;;;;16.20;9.95;;;;;;;;;;10450992;28;20094;-85
2023/03/22 16:10:26;;;;;;;32.45;14.93;;;;;;;;;;10450322;28;20028;-84
2023/03/22 16:15:36;;;;;;;71.50;36.58;;;;;;;;;;10482592;28;20131;-81
2023/03/22 16:20:37;;;;;;;54.65;26.65;;;;;;;;;;10478915;28;20036;-83
2023/03/22 16:25:38;;;;;;;92.45;42.67;;;;;;;;;;10484543;28;20410;-80
2023/03/22 16:30:40;;;;;;;35.00;19.50;;;;;;;;;;10482117;28;20025;-84
2023/03/22 16:35:42;;;;;;;63.10;29.60;;;;;;;;;;10497517;28;20036;-83
2023/03/22 16:40:48;;;;;;;40.78;19.85;;;;;;;;;;10484197;28;20415;-83
2023/03/22 16:45:49;;;;;;;34.65;19.27;;;;;;;;;;10482474;28;20187;-83
2023/03/22 16:50:50;;;;;;;36.42;18.88;;;;;;;;;;10496917;28;20548;-82
2023/03/22 16:55:51;;;;;;;18.70;10.85;;;;;;;;;;10483716;28;20037;-81
2023/03/22 17:00:54;;;;;;;58.28;26.55;;;;;;;;;;10481031;28;20037;-83
2023/03/22 17:05:57;;;;;;;87.80;42.08;;;;;;;;;;10473762;28;20028;-83
2023/03/22 17:10:58;;;;;;;107.43;43.30;;;;;;;;;;10469678;28;20650;-82
2023/03/22 17:15:59;;;;;;;91.88;41.72;;;;;;;;;;10482223;28;20039;-80
2023/03/22 17:21:00;;;;;;;168.30;81.32;;;;;;;;;;10487942;28;20051;-82
2023/03/22 17:26:01;;;;;;;189.85;89.15;;;;;;;;;;10490939;28;20119;-81
2023/03/22 17:31:05;;;;;;;168.93;76.50;;;;;;;;;;10510391;28;20033;-80
2023/03/22 17:36:08;;;;;;;255.02;116.85;;;;;;;;;;10520137;28;20741;-82
2023/03/22 17:41:11;;;;;;;243.30;95.90;;;;;;;;;;10511018;28;20039;-82
2023/03/22 17:46:12;;;;;;;142.55;55.70;;;;;;;;;;10504822;28;20503;-84
2023/03/22 17:51:14;;;;;;;111.72;44.58;;;;;;;;;;10484623;28;20028;-83
2023/03/22 17:56:18;;;;;;;139.80;58.47;;;;;;;;;;10494021;28;20032;-85
2023/03/22 18:01:22;;;;;;;127.03;51.55;;;;;;;;;;10495776;28;20083;-82
2023/03/22 18:06:23;;;;;;;93.43;38.70;;;;;;;;;;10480373;28;20072;-82
2023/03/22 18:11:24;;;;;;;89.70;36.05;;;;;;;;;;10495033;28;20029;-83
2023/03/22 18:16:25;;;;;;;126.43;52.58;;;;;;;;;;10475307;28;20033;-81
2023/03/22 18:21:26;;;;;;;107.80;48.90;;;;;;;;;;10487570;28;20127;-82
2023/03/22 18:26:31;;;;;;;125.80;57.67;;;;;;;;;;10484251;28;20504;-81
2023/03/22 18:31:32;;;;;;;138.55;62.83;;;;;;;;;;10488944;28;20044;-82
2023/03/22 18:36:33;;;;;;;138.20;60.70;;;;;;;;;;10465432;28;20063;-82
2023/03/22 18:41:34;;;;;;;125.47;55.08;;;;;;;;;;10479888;28;20123;-81
2023/03/22 18:46:35;;;;;;;133.32;59.38;;;;;;;;;;10478493;28;20089;-80
2023/03/22 18:51:36;;;;;;;166.38;94.32;;;;;;;;;;10487804;28;20040;-80
2023/03/22 18:56:37;;;;;;;58.03;28.02;;;;;;;;;;10484036;28;20024;-80
2023/03/22 19:01:38;;;;;;;78.78;40.30;;;;;;;;;;10481333;28;20081;-81
2023/03/22 19:06:43;;;;;;;225.50;98.53;;;;;;;;;;10479639;28;20028;-80
2023/03/22 19:11:44;;;;;;;350.33;198.40;;;;;;;;;;10475417;28;20039;-80
2023/03/22 19:16:45;;;;;;;127.53;71.18;;;;;;;;;;10487607;28;20052;-82
2023/03/22 19:21:46;;;;;;;80.45;41.90;;;;;;;;;;10474142;28;20121;-84
2023/03/22 19:26:47;;;;;;;99.75;53.97;;;;;;;;;;10482136;28;20759;-83
2023/03/22 19:31:48;;;;;;;105.10;55.17;;;;;;;;;;10457905;28;20127;-83
2023/03/22 19:36:50;;;;;;;80.07;36.78;;;;;;;;;;10485280;28;20060;-87
2023/03/22 19:41:51;;;;;;;99.35;48.47;;;;;;;;;;10467400;28;20040;-83
2023/03/22 19:46:53;;;;;;;97.53;49.17;;;;;;;;;;10477077;28;20106;-83
2023/03/22 19:51:58;;;;;;;95.35;48.20;;;;;;;;;;10478495;28;20396;-82
2023/03/22 19:56:59;;;;;;;101.07;52.83;;;;;;;;;;10479674;28;20033;-83
2023/03/22 20:02:00;;;;;;;93.32;51.47;;;;;;;;;;10483628;28;20089;-82
2023/03/22 20:07:01;;;;;;;102.28;58.05;;;;;;;;;;10478561;28;20712;-84
2023/03/22 20:12:02;;;;;;;67.25;38.50;;;;;;;;;;10456734;28;20028;-83
2023/03/22 20:17:03;;;;;;;73.50;41.28;;;;;;;;;;10497669;28;20032;-83
2023/03/22 20:22:04;;;;;;;64.93;37.72;;;;;;;;;;10484572;28;20127;-83
2023/03/22 20:27:06;;;;;;;66.28;40.50;;;;;;;;;;10480424;28;20032;-82
2023/03/22 20:32:07;;;;;;;64.72;34.70;;;;;;;;;;10451764;28;20028;-84
2023/03/22 20:37:08;;;;;;;92.07;49.08;;;;;;;;;;10471446;28;20072;-84
2023/03/22 20:42:09;;;;;;;72.53;38.63;;;;;;;;;;10471508;28;20044;-83
2023/03/22 20:47:10;;;;;;;86.70;45.05;;;;;;;;;;10476027;28;20490;-83
2023/03/22 20:52:11;;;;;;;63.95;33.17;;;;;;;;;;10478145;28;20074;-83
2023/03/22 20:57:12;;;;;;;63.45;32.10;;;;;;;;;;10474918;23;20049;-83
2023/03/22 21:02:14;;;;;;;162.93;74.55;;;;;;;;;;10440302;28;20037;-82
2023/03/22 21:07:15;;;;;;;422.58;193.85;;;;;;;;;;10437588;28;20064;-83
2023/03/22 21:12:16;;;;;;;361.00;161.93;;;;;;;;;;10421570;28;20108;-82
2023/03/22 21:17:18;;;;;;;419.48;195.20;;;;;;;;;;10405958;28;20536;-82
2023/03/22 21:22:23;;;;;;;352.05;156.85;;;;;;;;;;10399831;28;20033;-84
2023/03/22 21:27:24;;;;;;;297.70;128.60;;;;;;;;;;10378878;28;20029;-82
2023/03/22 21:32:26;;;;;;;221.27;94.60;;;;;;;;;;10399963;28;20842;-84
2023/03/22 21:37:27;;;;;;;198.52;90.13;;;;;;;;;;10409770;28;20045;-83
2023/03/22 21:42:29;;;;;;;221.82;102.38;;;;;;;;;;10407453;28;20528;-83
2023/03/22 21:47:33;;;;;;;191.95;84.75;;;;;;;;;;10407315;28;20401;-83
2023/03/22 21:52:34;;;;;;;114.53;54.03;;;;;;;;;;10404326;28;20041;-83
2023/03/22 21:57:35;;;;;;;95.65;43.42;;;;;;;;;;10406815;28;20061;-82
2023/03/22 22:02:40;;;;;;;75.28;38.13;;;;;;;;;;10397115;28;20545;-83
2023/03/22 22:07:41;;;;;;;102.93;49.65;;;;;;;;;;10402951;28;20087;-84
2023/03/22 22:12:42;;;;;;;67.93;34.65;;;;;;;;;;10405461;28;20461;-83
2023/03/22 22:17:43;;;;;;;104.60;54.35;;;;;;;;;;10406073;28;20045;-83
2023/03/22 22:22:46;;;;;;;146.80;70.90;;;;;;;;;;10406662;28;20033;-83
2023/03/22 22:27:47;;;;;;;186.43;95.15;;;;;;;;;;10366355;28;20041;-83
2023/03/22 22:32:48;;;;;;;200.55;100.93;;;;;;;;;;10406382;28;20103;-83
2023/03/22 22:37:50;;;;;;;169.13;88.35;;;;;;;;;;10380895;28;20785;-84
2023/03/22 22:42:51;;;;;;;170.00;93.28;;;;;;;;;;10383212;28;20594;-83
2023/03/22 22:47:51;;;;;;;128.68;72.47;;;;;;;;;;10396677;28;20037;-83
2023/03/22 22:52:52;;;;;;;92.90;50.60;;;;;;;;;;10387511;28;20038;-82
2023/03/22 22:57:54;;;;;;;81.13;43.40;;;;;;;;;;10391450;28;20054;-83
2023/03/22 23:02:55;;;;;;;57.30;31.95;;;;;;;;;;10373405;28;20033;-82
2023/03/22 23:07:56;;;;;;;51.22;29.10;;;;;;;;;;10393103;28;20570;-83
2023/03/22 23:12:57;;;;;;;44.80;26.17;;;;;;;;;;10391934;28;20118;-83
2023/03/22 23:18:01;;;;;;;54.60;29.88;;;;;;;;;;10399632;28;20457;-84
2023/03/22 23:23:02;;;;;;;49.90;27.38;;;;;;;;;;10392304;28;20040;-84
2023/03/22 23:28:04;;;;;;;47.55;27.02;;;;;;;;;;10422478;28;20029;-84
2023/03/22 23:33:05;;;;;;;40.77;25.17;;;;;;;;;;10399621;23;20097;-84
2023/03/22 23:38:06;;;;;;;37.50;22.40;;;;;;;;;;10429836;28;20175;-82
2023/03/22 23:43:07;;;;;;;45.83;25.48;;;;;;;;;;10383551;28;20156;-83
2023/03/22 23:48:08;;;;;;;50.13;30.60;;;;;;;;;;10406264;28;20101;-84
2023/03/22 23:53:09;;;;;;;48.37;29.50;;;;;;;;;;10415135;28;20041;-83
2023/03/22 23:58:10;;;;;;;51.93;29.57;;;;;;;;;;10419434;28;20048;-84
